Time;durP1;ratioP1;P1;durP2;ratioP2;P2;SDS_P1;SDS_P2;PMS_P1;PMS_P2;Temp;Humidity;BMP_temperature;BMP_pressure;BME280_temperature;BME280_humidity;BME280_pressure;Samples;Min_cycle;Max_cycle;Signal;HPM_P1;HPM_P2
2023/06/16 00:01:40;;;;;;;3.70;2.40;;;14.30;89.60;;;;;;5029953;28;20439;-74
2023/06/16 00:04:06;;;;;;;3.97;1.97;;;14.30;89.70;;;;;;5034220;28;20178;-74
2023/06/16 00:06:31;;;;;;;5.60;2.40;;;14.40;90.20;;;;;;5034500;28;20190;-74
2023/06/16 00:08:58;;;;;;;6.10;2.90;;;14.40;89.90;;;;;;5034030;28;20225;-74
2023/06/16 00:11:27;;;;;;;4.83;1.70;;;14.40;90.10;;;;;;5035113;28;21119;-74
2023/06/16 00:13:54;;;;;;;3.03;2.20;;;14.40;90.20;;;;;;5042486;28;20495;-74
2023/06/16 00:16:20;;;;;;;4.53;1.87;;;14.40;90.50;;;;;;5035919;28;20579;-74
2023/06/16 00:18:51;;;;;;;2.73;1.90;;;14.40;90.30;;;;;;5040329;28;20461;-74
2023/06/16 00:21:28;;;;;;;4.63;2.33;;;14.50;90.50;;;;;;5041215;28;20951;-74
2023/06/16 00:23:54;;;;;;;4.50;2.30;;;14.50;90.50;;;;;;5037469;28;20470;-74
2023/06/16 00:26:20;;;;;;;3.07;1.60;;;14.50;90.80;;;;;;5035438;28;20850;-74
2023/06/16 00:28:45;;;;;;;3.40;2.43;;;14.50;90.90;;;;;;5034488;28;20419;-74
2023/06/16 00:31:11;;;;;;;5.07;2.23;;;14.50;90.90;;;;;;5033403;28;20201;-74
2023/06/16 00:33:37;;;;;;;4.40;2.37;;;14.50;91.00;;;;;;5033995;28;20182;-74
2023/06/16 00:36:02;;;;;;;4.63;2.50;;;14.60;91.10;;;;;;5034066;28;20206;-74
2023/06/16 00:38:28;;;;;;;5.63;2.70;;;14.60;91.10;;;;;;5034154;28;20297;-74
2023/06/16 00:40:54;;;;;;;6.20;2.40;;;14.60;91.00;;;;;;5033155;28;20217;-75
2023/06/16 00:43:20;;;;;;;3.70;1.77;;;14.60;91.00;;;;;;5034049;28;20655;-74
2023/06/16 00:45:47;;;;;;;3.20;2.20;;;14.50;91.30;;;;;;5033694;28;20183;-74
2023/06/16 00:48:12;;;;;;;4.27;2.10;;;14.50;91.10;;;;;;5033476;28;20209;-74
2023/06/16 00:50:39;;;;;;;3.03;1.90;;;14.50;91.40;;;;;;5033284;28;20452;-74
2023/06/16 00:53:04;;;;;;;3.87;1.80;;;14.40;91.80;;;;;;5033907;28;20178;-74
2023/06/16 00:55:30;;;;;;;3.97;2.13;;;14.40;91.90;;;;;;5032067;28;20464;-74
2023/06/16 00:57:56;;;;;;;6.83;3.80;;;14.40;91.90;;;;;;5034008;28;21023;-74
2023/06/16 01:00:22;;;;;;;6.43;3.10;;;14.40;92.30;;;;;;5033280;28;20262;-75
2023/06/16 01:02:49;;;;;;;5.73;2.77;;;14.30;92.00;;;;;;5032813;28;20456;-74
2023/06/16 01:05:19;;;;;;;5.93;2.67;;;14.30;91.80;;;;;;5033730;28;20933;-74
2023/06/16 01:07:59;;;;;;;5.73;2.20;;;14.30;92.00;;;;;;5033782;28;20472;-74
2023/06/16 01:10:46;;;;;;;8.00;2.93;;;14.30;92.00;;;;;;5033516;28;20445;-75
2023/06/16 01:13:20;;;;;;;4.90;2.80;;;14.20;92.10;;;;;;5032705;28;20428;-74
2023/06/16 01:15:46;;;;;;;2.93;2.13;;;14.20;92.60;;;;;;5036216;28;20471;-74
2023/06/16 01:18:17;;;;;;;5.80;2.17;;;14.10;92.90;;;;;;5033083;28;20432;-74
2023/06/16 01:20:51;;;;;;;3.70;2.30;;;14.10;93.20;;;;;;5032994;28;20870;-74
2023/06/16 01:23:39;;;;;;;4.90;2.40;;;14.10;93.80;;;;;;5020382;28;20929;-74
2023/06/16 01:26:07;;;;;;;4.77;2.30;;;14.10;93.10;;;;;;5033096;28;20442;-74
2023/06/16 01:28:35;;;;;;;4.10;1.87;;;14.10;93.30;;;;;;5033135;28;20452;-74
2023/06/16 01:31:02;;;;;;;5.00;2.17;;;14.10;93.50;;;;;;5032432;28;20424;-74
2023/06/16 01:33:32;;;;;;;4.37;2.37;;;14.10;93.60;;;;;;5032958;28;20539;-74
2023/06/16 01:35:59;;;;;;;4.30;2.20;;;14.00;93.80;;;;;;5032851;28;20450;-74
2023/06/16 01:38:26;;;;;;;3.63;2.37;;;13.90;94.30;;;;;;5033078;28;20436;-74
2023/06/16 01:40:53;;;;;;;8.30;2.17;;;13.90;94.60;;;;;;5032277;28;20891;-74
2023/06/16 01:43:20;;;;;;;4.87;2.50;;;13.70;95.00;;;;;;5033149;28;20416;-74
2023/06/16 01:45:47;;;;;;;3.73;2.03;;;13.60;95.30;;;;;;5037158;28;20428;-74
2023/06/16 01:48:13;;;;;;;4.03;2.20;;;13.50;95.60;;;;;;5045695;28;20431;-74
2023/06/16 01:50:39;;;;;;;7.73;2.80;;;13.50;95.90;;;;;;5015140;28;20433;-74
2023/06/16 01:53:04;;;;;;;3.57;2.20;;;13.50;96.40;;;;;;5033322;28;20179;-74
2023/06/16 01:55:30;;;;;;;6.50;2.47;;;13.40;96.70;;;;;;5031337;28;20461;-74
2023/06/16 01:57:57;;;;;;;3.87;2.33;;;13.40;97.10;;;;;;5032868;28;20228;-74
2023/06/16 02:00:27;;;;;;;5.00;2.40;;;13.30;97.20;;;;;;5032502;28;20183;-74
2023/06/16 02:03:11;;;;;;;4.90;3.03;;;13.30;97.50;;;;;;5032815;28;20448;-74
2023/06/16 02:05:41;;;;;;;4.97;2.43;;;13.30;97.40;;;;;;5043271;28;20425;-74
2023/06/16 02:08:08;;;;;;;5.10;2.70;;;13.20;97.40;;;;;;5032607;28;20522;-74
2023/06/16 02:10:34;;;;;;;3.97;1.90;;;13.20;97.40;;;;;;5031719;28;20928;-74
2023/06/16 02:13:00;;;;;;;5.57;2.10;;;13.30;97.70;;;;;;5032170;28;20413;-74
2023/06/16 02:15:27;;;;;;;5.00;2.77;;;13.30;97.50;;;;;;5032153;28;20281;-74
2023/06/16 02:17:57;;;;;;;4.37;2.23;;;13.30;97.40;;;;;;5032235;28;20432;-74
2023/06/16 02:20:24;;;;;;;5.83;2.37;;;13.30;97.40;;;;;;5032364;28;20418;-74
2023/06/16 02:22:50;;;;;;;3.37;2.57;;;13.20;97.50;;;;;;5031942;28;20434;-74
2023/06/16 02:25:16;;;;;;;5.30;2.70;;;13.10;97.60;;;;;;5041610;28;20421;-74
2023/06/16 02:27:43;;;;;;;6.00;3.07;;;13.10;97.50;;;;;;5034765;28;20289;-74
2023/06/16 02:30:12;;;;;;;4.53;2.77;;;13.10;97.80;;;;;;5032024;28;20213;-74
2023/06/16 02:32:38;;;;;;;6.07;2.93;;;13.10;98.00;;;;;;5049776;28;20462;-74
2023/06/16 02:35:06;;;;;;;2.67;1.53;;;13.00;98.00;;;;;;5040182;28;20460;-74
2023/06/16 02:37:35;;;;;;;7.10;2.70;;;12.90;98.30;;;;;;5032371;28;20417;-74
2023/06/16 02:40:04;;;;;;;5.60;2.90;;;12.80;98.60;;;;;;5031477;28;20424;-74
2023/06/16 02:42:30;;;;;;;3.30;2.10;;;12.70;98.90;;;;;;5014238;28;20856;-74
2023/06/16 02:44:56;;;;;;;4.43;2.17;;;12.70;99.20;;;;;;5031947;28;20429;-74
2023/06/16 02:47:22;;;;;;;6.33;2.77;;;12.60;99.50;;;;;;5031755;28;20425;-74
2023/06/16 02:49:48;;;;;;;5.77;2.97;;;12.60;99.50;;;;;;5031435;28;20218;-73
2023/06/16 02:52:14;;;;;;;4.87;2.63;;;12.50;99.80;;;;;;5031469;28;20209;-74
2023/06/16 02:54:40;;;;;;;5.70;3.07;;;12.50;99.90;;;;;;5030598;28;20421;-74
2023/06/16 02:57:07;;;;;;;4.17;2.30;;;12.40;99.90;;;;;;5031785;28;20409;-74
2023/06/16 02:59:33;;;;;;;3.53;2.13;;;12.40;99.90;;;;;;5031332;28;20684;-74
2023/06/16 03:01:59;;;;;;;8.43;3.17;;;12.30;99.90;;;;;;5031391;28;20960;-74
2023/06/16 03:04:25;;;;;;;4.20;2.63;;;12.30;99.90;;;;;;5031068;28;20417;-73
2023/06/16 03:06:53;;;;;;;3.73;2.20;;;12.30;99.90;;;;;;5031410;28;20197;-73
2023/06/16 03:09:18;;;;;;;7.93;2.77;;;12.20;99.90;;;;;;5031001;28;20836;-73
2023/06/16 03:11:44;;;;;;;4.40;2.90;;;12.20;99.90;;;;;;5036404;28;20494;-73
2023/06/16 03:14:10;;;;;;;4.47;2.97;;;12.20;99.90;;;;;;5035108;28;20182;-73
2023/06/16 03:16:36;;;;;;;3.73;2.20;;;12.20;99.90;;;;;;5036267;28;20216;-73
2023/06/16 03:19:01;;;;;;;4.30;2.60;;;12.20;99.90;;;;;;5050731;28;20190;-73
2023/06/16 03:21:27;;;;;;;6.27;2.60;;;12.00;99.90;;;;;;5045287;28;20209;-73
2023/06/16 03:23:53;;;;;;;4.23;2.03;;;12.00;99.90;;;;;;5031650;28;20174;-73
2023/06/16 03:26:19;;;;;;;3.20;2.23;;;12.00;99.90;;;;;;5031538;28;20183;-73
2023/06/16 03:28:44;;;;;;;7.33;3.60;;;12.20;99.90;;;;;;5031596;28;20523;-73
2023/06/16 03:31:10;;;;;;;5.17;3.33;;;12.00;99.90;;;;;;5030595;28;20274;-73
2023/06/16 03:33:36;;;;;;;5.63;3.00;;;11.90;99.90;;;;;;5031147;28;20179;-73
2023/06/16 03:36:02;;;;;;;3.97;2.40;;;11.90;99.90;;;;;;5030863;28;20210;-73
2023/06/16 03:38:27;;;;;;;4.60;3.13;;;11.90;99.90;;;;;;5031472;28;20189;-73
2023/06/16 03:40:53;;;;;;;4.23;2.50;;;11.90;99.90;;;;;;5030413;28;20642;-73
2023/06/16 03:43:19;;;;;;;7.27;2.70;;;11.90;99.90;;;;;;5031414;28;20580;-73
2023/06/16 03:45:44;;;;;;;4.73;2.97;;;11.90;99.90;;;;;;5039639;28;20194;-73
2023/06/16 03:48:10;;;;;;;3.97;1.87;;;11.90;99.90;;;;;;5031464;28;20202;-73
2023/06/16 03:50:36;;;;;;;4.27;2.53;;;11.90;99.90;;;;;;5035941;28;20213;-73
2023/06/16 03:53:01;;;;;;;6.30;2.80;;;11.90;99.90;;;;;;5038921;28;20199;-73
2023/06/16 03:55:28;;;;;;;5.60;2.80;;;11.90;99.90;;;;;;5030124;28;20202;-73
2023/06/16 03:57:54;;;;;;;5.83;2.53;;;11.90;99.90;;;;;;5031404;28;20510;-74
2023/06/16 04:00:19;;;;;;;6.57;3.03;;;11.90;99.90;;;;;;5030932;28;20471;-74
2023/06/16 04:02:45;;;;;;;3.53;2.50;;;11.90;99.90;;;;;;5030834;28;20540;-74
2023/06/16 04:05:11;;;;;;;9.43;3.37;;;11.90;99.90;;;;;;5030741;28;20301;-73
2023/06/16 04:07:36;;;;;;;3.20;1.90;;;11.90;99.90;;;;;;5031148;28;20689;-73
2023/06/16 04:10:04;;;;;;;4.00;2.73;;;12.00;99.90;;;;;;5030588;28;20202;-73
2023/06/16 04:12:29;;;;;;;4.30;2.80;;;12.00;99.90;;;;;;5030505;28;20278;-73
2023/06/16 04:14:55;;;;;;;4.20;2.73;;;12.10;99.90;;;;;;5030651;28;20584;-74
2023/06/16 04:17:20;;;;;;;4.30;2.70;;;12.00;99.90;;;;;;5030949;28;20298;-74
2023/06/16 04:19:46;;;;;;;5.00;2.40;;;12.00;99.90;;;;;;5035749;28;20200;-74
2023/06/16 04:22:12;;;;;;;5.57;3.13;;;12.00;99.90;;;;;;5038330;28;20678;-74
2023/06/16 04:24:37;;;;;;;4.00;2.63;;;12.00;99.90;;;;;;5030697;28;20182;-73
2023/06/16 04:27:04;;;;;;;5.07;2.67;;;12.00;99.90;;;;;;5030705;28;20174;-73
2023/06/16 04:29:30;;;;;;;4.43;2.60;;;12.10;99.90;;;;;;5030705;28;20205;-74
2023/06/16 04:31:59;;;;;;;5.63;3.10;;;12.10;99.90;;;;;;5030334;28;20425;-74
2023/06/16 04:34:25;;;;;;;3.93;2.10;;;12.20;99.90;;;;;;5030687;28;20182;-74
2023/06/16 04:36:53;;;;;;;5.93;3.03;;;12.20;99.90;;;;;;5030444;28;20516;-74
2023/06/16 04:39:19;;;;;;;6.47;2.67;;;12.30;99.90;;;;;;5030404;28;20429;-74
2023/06/16 04:41:44;;;;;;;6.83;2.23;;;12.40;99.90;;;;;;5030306;28;20417;-74
2023/06/16 04:44:10;;;;;;;3.73;2.37;;;12.40;99.90;;;;;;5030136;28;20178;-74
2023/06/16 04:46:37;;;;;;;3.80;2.40;;;12.50;99.90;;;;;;5044123;28;20220;-74
2023/06/16 04:49:03;;;;;;;4.33;2.63;;;12.50;99.90;;;;;;5045871;28;20201;-74
2023/06/16 04:51:29;;;;;;;6.63;1.90;;;12.60;99.90;;;;;;5034047;28;21008;-74
2023/06/16 04:53:55;;;;;;;4.33;2.63;;;12.60;99.90;;;;;;5040635;28;20510;-74
2023/06/16 04:56:20;;;;;;;5.00;3.13;;;12.80;99.90;;;;;;5040282;28;20290;-74
2023/06/16 04:58:46;;;;;;;5.13;2.17;;;12.80;99.90;;;;;;5034133;28;20202;-74
2023/06/16 05:01:12;;;;;;;6.57;3.10;;;12.80;99.90;;;;;;5033791;28;20186;-74
2023/06/16 05:03:37;;;;;;;7.47;2.80;;;12.90;99.90;;;;;;5033847;28;20194;-74
2023/06/16 05:06:03;;;;;;;3.63;2.47;;;12.90;99.90;;;;;;5047037;28;20280;-74
2023/06/16 05:08:29;;;;;;;5.37;2.63;;;13.00;99.90;;;;;;5034327;28;20316;-74
2023/06/16 05:10:54;;;;;;;5.47;2.30;;;13.10;99.90;;;;;;5033328;28;20499;-74
2023/06/16 05:13:20;;;;;;;4.27;2.20;;;13.20;99.90;;;;;;5042927;28;20198;-74
2023/06/16 05:15:46;;;;;;;8.23;3.00;;;13.30;99.90;;;;;;5043337;28;20210;-74
2023/06/16 05:18:12;;;;;;;8.47;2.63;;;13.40;99.90;;;;;;5039860;28;20196;-74
2023/06/16 05:20:37;;;;;;;4.57;2.60;;;13.50;99.90;;;;;;5040354;28;20185;-74
2023/06/16 05:23:03;;;;;;;4.57;2.60;;;13.60;99.90;;;;;;5033559;28;20190;-74
2023/06/16 05:25:30;;;;;;;5.80;2.90;;;13.70;99.90;;;;;;5045683;28;20182;-74
2023/06/16 05:27:55;;;;;;;6.10;3.17;;;13.70;99.90;;;;;;5034133;28;20574;-74
2023/06/16 05:30:21;;;;;;;5.83;2.90;;;13.80;99.90;;;;;;5033513;28;20425;-72
2023/06/16 05:32:47;;;;;;;6.50;2.90;;;13.90;99.90;;;;;;5033424;28;20189;-73
2023/06/16 05:35:12;;;;;;;6.33;3.30;;;14.00;99.90;;;;;;5033023;28;20206;-73
2023/06/16 05:37:38;;;;;;;6.30;2.30;;;14.10;99.90;;;;;;5032723;28;20209;-73
2023/06/16 05:40:04;;;;;;;4.73;2.60;;;14.20;99.60;;;;;;5031812;28;20186;-72
2023/06/16 05:42:30;;;;;;;6.37;3.50;;;14.30;99.80;;;;;;5031844;28;20201;-72
2023/06/16 05:44:56;;;;;;;7.43;3.37;;;14.40;99.90;;;;;;5032993;28;20894;-72
2023/06/16 05:47:21;;;;;;;5.00;2.43;;;14.50;99.90;;;;;;5033089;28;20561;-72
2023/06/16 05:49:47;;;;;;;11.23;3.60;;;14.60;99.90;;;;;;5032415;28;20266;-72
2023/06/16 05:52:12;;;;;;;4.97;2.67;;;14.70;99.30;;;;;;5032299;28;20277;-72
2023/06/16 05:54:38;;;;;;;9.27;3.10;;;14.90;99.10;;;;;;5031221;28;20221;-72
2023/06/16 05:57:04;;;;;;;5.90;2.20;;;15.00;99.10;;;;;;5046076;28;20297;-73
2023/06/16 05:59:30;;;;;;;4.57;2.50;;;15.10;99.80;;;;;;5032370;28;20190;-72
2023/06/16 06:01:56;;;;;;;4.13;2.17;;;15.20;99.00;;;;;;5032370;28;20182;-72
2023/06/16 06:04:29;;;;;;;4.17;2.43;;;15.40;98.40;;;;;;5032091;28;20192;-72
2023/06/16 06:06:55;;;;;;;7.70;3.50;;;15.60;98.30;;;;;;5032295;28;20974;-72
2023/06/16 06:09:21;;;;;;;4.53;2.40;;;15.70;98.50;;;;;;5031864;28;20449;-72
2023/06/16 06:11:46;;;;;;;4.20;2.33;;;15.80;98.10;;;;;;5031483;28;20580;-73
2023/06/16 06:14:12;;;;;;;4.47;2.23;;;15.90;98.10;;;;;;5041357;28;20194;-73
2023/06/16 06:16:38;;;;;;;3.70;1.93;;;16.10;97.60;;;;;;5041251;28;20205;-72
2023/06/16 06:19:04;;;;;;;3.23;1.90;;;16.20;95.90;;;;;;5037350;28;20623;-73
2023/06/16 06:21:30;;;;;;;3.23;1.90;;;16.30;93.40;;;;;;5032042;28;20446;-72
2023/06/16 06:23:55;;;;;;;3.00;2.07;;;16.50;92.80;;;;;;5031612;28;20183;-72
2023/06/16 06:26:21;;;;;;;4.37;2.03;;;16.60;91.80;;;;;;5032148;28;20190;-72
2023/06/16 06:28:47;;;;;;;4.23;2.23;;;16.70;91.00;;;;;;5032286;28;20269;-72
2023/06/16 06:31:13;;;;;;;6.73;1.73;;;16.80;91.70;;;;;;5031644;28;20186;-72
2023/06/16 06:33:39;;;;;;;2.77;1.70;;;17.00;90.70;;;;;;5032104;28;20197;-72
2023/06/16 06:36:05;;;;;;;4.07;2.07;;;17.00;90.60;;;;;;5044641;28;20216;-72
2023/06/16 06:38:30;;;;;;;4.70;2.50;;;17.10;90.40;;;;;;5031713;28;20910;-73
2023/06/16 06:40:56;;;;;;;7.60;2.90;;;17.20;90.50;;;;;;5030820;28;20186;-72
2023/06/16 06:43:22;;;;;;;4.33;2.30;;;17.30;88.00;;;;;;5031771;28;20201;-73
2023/06/16 06:45:49;;;;;;;5.77;2.83;;;17.40;87.30;;;;;;5031533;28;20190;-73
2023/06/16 06:48:14;;;;;;;8.27;1.70;;;17.50;88.90;;;;;;5031651;28;20186;-73
2023/06/16 06:50:40;;;;;;;5.00;2.30;;;17.60;89.30;;;;;;5030607;28;20432;-73
2023/06/16 06:53:06;;;;;;;5.50;2.43;;;17.70;86.70;;;;;;5043775;28;20195;-72
2023/06/16 06:55:31;;;;;;;3.67;2.30;;;17.80;86.50;;;;;;5031421;28;20206;-73
2023/06/16 06:57:58;;;;;;;2.50;1.53;;;17.90;84.40;;;;;;5031512;28;20329;-72
2023/06/16 07:00:24;;;;;;;5.60;2.37;;;18.10;81.80;;;;;;5030956;28;20468;-71
2023/06/16 07:02:49;;;;;;;3.70;1.73;;;18.10;79.70;;;;;;5031058;28;20620;-70
2023/06/16 07:05:15;;;;;;;7.93;2.53;;;18.20;81.20;;;;;;5030338;28;20492;-71
2023/06/16 07:07:41;;;;;;;5.73;1.83;;;18.40;81.40;;;;;;5031451;28;20677;-70
2023/06/16 07:10:07;;;;;;;3.40;2.07;;;18.60;83.10;;;;;;5030655;28;20240;-70
2023/06/16 07:12:33;;;;;;;3.57;2.03;;;18.80;82.30;;;;;;5030414;28;20186;-70
2023/06/16 07:14:59;;;;;;;6.33;2.10;;;19.00;81.10;;;;;;5032338;28;20427;-70
2023/06/16 07:17:25;;;;;;;3.50;1.93;;;19.30;80.60;;;;;;5031114;28;20194;-70
2023/06/16 07:19:50;;;;;;;6.50;1.97;;;19.50;80.90;;;;;;5030715;28;20183;-71
2023/06/16 07:22:16;;;;;;;4.27;2.00;;;19.60;79.90;;;;;;5030745;28;20179;-71
2023/06/16 07:24:42;;;;;;;5.30;1.80;;;19.90;78.70;;;;;;5030315;28;20182;-71
2023/06/16 07:27:08;;;;;;;3.90;2.00;;;20.10;78.70;;;;;;5031151;28;20547;-72
2023/06/16 07:29:34;;;;;;;3.93;1.93;;;20.30;76.80;;;;;;5030491;28;20201;-72
2023/06/16 07:32:00;;;;;;;3.93;2.30;;;20.50;76.50;;;;;;5030596;28;20429;-71
2023/06/16 07:34:26;;;;;;;5.17;2.13;;;20.70;77.40;;;;;;5030526;28;20452;-72
2023/06/16 07:36:51;;;;;;;7.63;2.53;;;21.00;77.10;;;;;;5030292;28;20292;-71
2023/06/16 07:39:17;;;;;;;6.40;1.97;;;21.20;74.20;;;;;;5029986;28;20592;-72
2023/06/16 07:41:43;;;;;;;3.53;1.90;;;21.70;73.00;;;;;;5030101;28;20216;-71
2023/06/16 07:44:09;;;;;;;2.70;1.60;;;22.40;70.90;;;;;;5030504;28;20428;-71
2023/06/16 07:46:34;;;;;;;4.50;2.50;;;23.10;69.60;;;;;;5030320;28;20181;-72
2023/06/16 07:49:00;;;;;;;5.03;2.50;;;23.80;67.10;;;;;;5037921;28;20260;-70
2023/06/16 07:51:26;;;;;;;3.43;2.00;;;24.10;66.60;;;;;;5036420;28;20232;-70
2023/06/16 07:53:52;;;;;;;5.03;2.63;;;24.50;63.70;;;;;;5033461;28;20271;-69
2023/06/16 07:56:18;;;;;;;4.45;2.05;;;24.70;62.90;;;;;;5034676;28;20256;-71
2023/06/16 07:58:44;;;;;;;4.93;2.10;;;25.30;60.40;;;;;;5034564;28;20648;-69
2023/06/16 08:01:10;;;;;;;8.65;2.58;;;24.80;59.50;;;;;;5040287;28;20181;-70
2023/06/16 08:03:36;;;;;;;5.18;2.03;;;25.40;58.80;;;;;;5039235;28;20248;-70
2023/06/16 08:06:03;;;;;;;4.95;2.67;;;25.80;59.30;;;;;;5039019;28;20189;-70
2023/06/16 08:08:28;;;;;;;21.42;2.53;;;26.10;55.20;;;;;;5035737;28;20182;-70
2023/06/16 08:10:58;;;;;;;2.33;1.50;;;26.20;56.10;;;;;;5029278;28;20184;-71
2023/06/16 08:13:24;;;;;;;3.78;2.22;;;25.90;54.40;;;;;;5030239;28;20188;-69
2023/06/16 08:15:50;;;;;;;3.90;2.22;;;26.40;53.60;;;;;;5030286;28;20202;-69
2023/06/16 08:18:17;;;;;;;3.38;2.15;;;26.50;52.20;;;;;;5030365;28;20224;-70
2023/06/16 08:20:45;;;;;;;3.72;1.92;;;26.10;53.40;;;;;;5029617;28;20178;-70
2023/06/16 08:23:11;;;;;;;3.92;2.15;;;26.00;52.60;;;;;;5033263;28;20188;-69
2023/06/16 08:25:37;;;;;;;9.15;2.78;;;26.20;52.70;;;;;;5038142;28;20178;-76
2023/06/16 08:28:03;;;;;;;3.83;2.38;;;26.00;52.20;;;;;;5034241;28;20649;-76
2023/06/16 08:30:29;;;;;;;3.42;1.65;;;26.30;50.00;;;;;;5033932;28;20180;-75
2023/06/16 08:32:55;;;;;;;2.28;1.45;;;26.50;51.90;;;;;;5033622;28;20189;-76
2023/06/16 08:35:21;;;;;;;4.50;2.53;;;26.80;51.70;;;;;;5034144;28;20206;-78
2023/06/16 08:37:47;;;;;;;4.63;2.50;;;26.80;49.90;;;;;;5033968;28;20197;-76
2023/06/16 08:40:13;;;;;;;5.10;2.40;;;27.00;49.10;;;;;;5033048;28;20677;-75
2023/06/16 08:42:40;;;;;;;5.07;2.00;;;27.30;48.00;;;;;;5034023;28;20296;-78
2023/06/16 08:45:06;;;;;;;2.75;1.55;;;27.50;48.30;;;;;;5033860;28;20181;-81
2023/06/16 08:47:32;;;;;;;4.38;2.00;;;27.60;47.20;;;;;;5035156;28;20186;-78
2023/06/16 08:49:58;;;;;;;4.55;2.30;;;27.00;47.40;;;;;;5047866;28;20185;-75
2023/06/16 08:52:24;;;;;;;6.22;2.30;;;27.00;47.60;;;;;;5033721;28;20566;-75
2023/06/16 08:54:57;;;;;;;4.90;2.45;;;27.30;45.80;;;;;;5032670;28;20201;-75
2023/06/16 08:57:23;;;;;;;3.30;1.77;;;27.00;47.00;;;;;;5034188;28;20197;-75
2023/06/16 08:59:54;;;;;;;8.30;2.42;;;27.10;46.50;;;;;;5034008;28;20178;-76
2023/06/16 09:02:21;;;;;;;4.10;1.90;;;27.20;46.20;;;;;;5033851;28;20178;-79
2023/06/16 09:04:47;;;;;;;3.22;1.90;;;26.50;46.80;;;;;;5034250;28;20181;-75
2023/06/16 09:07:19;;;;;;;3.92;1.80;;;25.90;47.40;;;;;;5034568;28;20192;-75
2023/06/16 09:09:48;;;;;;;4.65;2.13;;;25.60;48.60;;;;;;5033341;28;20229;-77
2023/06/16 09:12:14;;;;;;;6.15;2.55;;;25.30;49.10;;;;;;5043362;28;20254;-74
2023/06/16 09:14:41;;;;;;;3.55;2.30;;;25.10;48.70;;;;;;5033239;28;20785;-75
2023/06/16 09:17:09;;;;;;;5.03;1.80;;;25.70;49.30;;;;;;5033712;28;20305;-76
2023/06/16 09:19:50;;;;;;;3.63;2.03;;;25.90;46.10;;;;;;5046980;28;20261;-76
2023/06/16 09:22:23;;;;;;;3.53;1.98;;;26.00;46.70;;;;;;5033210;28;20566;-76
2023/06/16 09:25:00;;;;;;;5.18;2.15;;;26.30;47.00;;;;;;5020706;28;20174;-78
2023/06/16 09:27:43;;;;;;;6.95;1.95;;;26.10;45.70;;;;;;5033205;28;20185;-75
2023/06/16 09:30:13;;;;;;;4.32;2.40;;;26.30;46.40;;;;;;5033256;28;20178;-77
2023/06/16 09:32:40;;;;;;;6.25;2.47;;;26.70;46.20;;;;;;5033592;28;20204;-82
2023/06/16 09:35:20;;;;;;;5.32;2.38;;;26.70;46.40;;;;;;5033379;28;20174;-78
2023/06/16 09:37:50;;;;;;;5.47;2.03;;;26.60;45.70;;;;;;5021656;28;20200;-75
2023/06/16 09:40:16;;;;;;;3.42;1.67;;;26.80;46.10;;;;;;5033007;28;20224;-75
2023/06/16 09:42:44;;;;;;;5.07;1.90;;;27.10;45.00;;;;;;5032475;28;20320;-76
2023/06/16 09:45:14;;;;;;;3.60;2.00;;;27.10;45.10;;;;;;5033087;28;20246;-76
2023/06/16 09:47:44;;;;;;;5.13;2.30;;;27.10;44.30;;;;;;5033190;28;20188;-76
2023/06/16 09:50:15;;;;;;;3.60;1.73;;;27.00;44.90;;;;;;5032565;28;20189;-75
2023/06/16 09:52:45;;;;;;;13.70;2.30;;;27.00;45.70;;;;;;5032861;28;20209;-87
2023/06/16 09:55:12;;;;;;;4.03;2.22;;;27.10;44.90;;;;;;5035539;28;20197;-77
2023/06/16 09:57:40;;;;;;;4.63;2.05;;;26.60;44.80;;;;;;5043384;28;20813;-74
2023/06/16 10:00:15;;;;;;;6.20;1.80;;;26.30;45.40;;;;;;5033745;28;20707;-82
2023/06/16 10:02:42;;;;;;;5.65;2.40;;;25.80;45.70;;;;;;5033047;28;20184;-76
2023/06/16 10:05:09;;;;;;;4.80;2.00;;;25.20;46.20;;;;;;5028241;28;20189;-73
2023/06/16 10:07:38;;;;;;;3.20;1.73;;;25.30;47.50;;;;;;5032513;28;20170;-73
2023/06/16 10:10:08;;;;;;;3.90;2.00;;;25.60;47.00;;;;;;5037366;28;20190;-75
2023/06/16 10:12:35;;;;;;;4.05;1.95;;;26.20;45.90;;;;;;5031774;28;20257;-74
2023/06/16 10:15:03;;;;;;;5.55;2.15;;;26.50;45.10;;;;;;5032062;28;20815;-73
2023/06/16 10:17:31;;;;;;;3.10;1.83;;;26.70;44.90;;;;;;5032425;28;20178;-73
2023/06/16 10:19:57;;;;;;;8.45;2.58;;;26.70;46.10;;;;;;5032794;28;20182;-74
2023/06/16 10:22:23;;;;;;;5.25;2.17;;;26.30;46.60;;;;;;5032544;28;20265;-76
2023/06/16 10:24:49;;;;;;;4.85;2.08;;;25.80;46.80;;;;;;5017158;28;20280;-73
2023/06/16 10:27:16;;;;;;;3.63;2.10;;;25.70;47.50;;;;;;5041174;28;20225;-74
2023/06/16 10:29:46;;;;;;;4.97;2.40;;;25.50;46.70;;;;;;5044704;28;20193;-76
2023/06/16 10:32:12;;;;;;;3.80;1.70;;;24.70;48.00;;;;;;5043945;28;20591;-77
2023/06/16 10:34:49;;;;;;;2.07;1.30;;;24.20;47.60;;;;;;5041177;28;20888;-74
2023/06/16 10:37:15;;;;;;;4.37;2.00;;;24.40;46.50;;;;;;5037779;28;20460;-74
2023/06/16 10:39:43;;;;;;;3.50;1.70;;;24.40;47.40;;;;;;5039435;28;20416;-74
2023/06/16 10:42:11;;;;;;;3.33;1.63;;;24.70;45.80;;;;;;5031287;28;20429;-74
2023/06/16 10:44:37;;;;;;;4.13;2.03;;;24.80;47.10;;;;;;5032089;28;20419;-74
2023/06/16 10:47:08;;;;;;;2.93;1.43;;;24.90;46.80;;;;;;5031196;28;20432;-74
2023/06/16 10:49:50;;;;;;;3.53;1.50;;;25.00;46.90;;;;;;5031693;28;20420;-75
2023/06/16 10:52:17;;;;;;;11.60;2.10;;;25.40;48.00;;;;;;5042227;28;20461;-80
2023/06/16 10:54:44;;;;;;;4.90;1.90;;;25.40;46.30;;;;;;5039599;28;21050;-79
2023/06/16 10:57:12;;;;;;;3.30;2.20;;;24.80;46.40;;;;;;5031959;28;20488;-74
2023/06/16 11:00:16;;;;;;;3.47;1.67;;;25.00;46.00;;;;;;5031500;28;20467;-76
2023/06/16 11:02:53;;;;;;;4.13;1.97;;;25.10;46.90;;;;;;5005218;28;20478;-75
2023/06/16 11:05:22;;;;;;;3.70;1.77;;;24.90;46.80;;;;;;5031506;28;20919;-76
2023/06/16 11:07:58;;;;;;;6.13;2.67;;;24.90;46.40;;;;;;5031900;28;20511;-82
2023/06/16 11:10:24;;;;;;;2.53;2.03;;;25.00;46.80;;;;;;5032292;28;20440;-78
2023/06/16 11:12:51;;;;;;;3.83;1.60;;;24.80;47.30;;;;;;5031450;28;20452;-83
2023/06/16 11:15:18;;;;;;;2.57;1.53;;;24.50;47.40;;;;;;5039711;28;20463;-75
2023/06/16 11:17:47;;;;;;;2.20;1.47;;;24.60;46.80;;;;;;5031557;28;20520;-74
2023/06/16 11:20:13;;;;;;;3.53;1.90;;;24.60;47.50;;;;;;5030809;28;20424;-74
2023/06/16 11:22:39;;;;;;;4.70;2.83;;;25.00;48.10;;;;;;5032276;28;20416;-76
2023/06/16 11:25:05;;;;;;;3.07;1.90;;;25.10;47.00;;;;;;5031836;28;21225;-77
2023/06/16 11:27:32;;;;;;;4.37;1.87;;;25.00;47.60;;;;;;5034442;28;20429;-74
2023/06/16 11:30:05;;;;;;;7.73;3.07;;;24.80;46.20;;;;;;5042219;28;20416;-75
2023/06/16 11:32:34;;;;;;;4.30;2.07;;;24.80;46.70;;;;;;5031143;28;20444;-75
2023/06/16 11:35:01;;;;;;;4.83;2.17;;;24.80;48.00;;;;;;5031080;28;20900;-77
2023/06/16 11:37:47;;;;;;;4.30;2.23;;;25.00;48.10;;;;;;5044318;28;20440;-76
2023/06/16 11:40:17;;;;;;;3.80;2.07;;;24.90;47.00;;;;;;5036277;28;20431;-76
2023/06/16 11:42:43;;;;;;;3.37;1.90;;;25.20;49.10;;;;;;5034772;28;20919;-77
2023/06/16 11:45:09;;;;;;;4.37;2.03;;;25.30;46.00;;;;;;5036614;28;20420;-75
2023/06/16 11:47:35;;;;;;;4.73;2.37;;;25.10;46.60;;;;;;5031490;28;20174;-75
2023/06/16 11:50:00;;;;;;;3.33;2.00;;;24.90;46.90;;;;;;5030828;28;20558;-78
2023/06/16 11:52:27;;;;;;;4.00;1.70;;;25.30;45.20;;;;;;5030955;28;20189;-82
2023/06/16 11:54:57;;;;;;;5.10;2.43;;;25.20;46.10;;;;;;5028505;28;20208;-74
2023/06/16 11:57:22;;;;;;;3.50;1.87;;;25.20;45.40;;;;;;5032617;28;20421;-74
2023/06/16 11:59:48;;;;;;;4.00;1.93;;;25.50;45.80;;;;;;5030597;28;20425;-75
2023/06/16 12:02:14;;;;;;;5.70;2.37;;;25.40;46.20;;;;;;5040110;28;20200;-76
2023/06/16 12:04:40;;;;;;;2.90;1.87;;;25.30;47.50;;;;;;5051330;28;20196;-75
2023/06/16 12:07:06;;;;;;;3.67;1.70;;;25.30;46.10;;;;;;5047012;28;20182;-75
2023/06/16 12:09:38;;;;;;;5.57;2.40;;;25.20;45.90;;;;;;5048738;28;20439;-76
2023/06/16 12:12:05;;;;;;;4.07;2.20;;;25.10;46.40;;;;;;5051309;28;20190;-75
2023/06/16 12:14:35;;;;;;;4.07;2.13;;;25.30;47.30;;;;;;5040264;28;20749;-74
2023/06/16 12:17:01;;;;;;;4.63;2.10;;;25.70;46.90;;;;;;5041978;28;20477;-77
2023/06/16 12:19:27;;;;;;;4.30;2.33;;;25.30;45.50;;;;;;5029688;28;20427;-75
2023/06/16 12:22:00;;;;;;;5.90;2.27;;;25.10;46.00;;;;;;5049876;28;20461;-80
2023/06/16 12:24:27;;;;;;;3.77;2.43;;;25.20;45.60;;;;;;5047035;28;20416;-75
2023/06/16 12:26:53;;;;;;;3.77;2.07;;;25.30;45.50;;;;;;5046509;28;20938;-76
2023/06/16 12:29:19;;;;;;;4.03;2.10;;;25.50;46.90;;;;;;5048011;28;20832;-76
2023/06/16 12:31:55;;;;;;;4.93;2.20;;;25.60;45.70;;;;;;5044656;28;20923;-76
2023/06/16 12:34:30;;;;;;;6.50;3.03;;;25.70;48.00;;;;;;5050940;28;20186;-78
2023/06/16 12:37:06;;;;;;;7.37;2.33;;;25.60;46.50;;;;;;5042425;28;20516;-78
2023/06/16 12:39:36;;;;;;;5.37;2.67;;;25.40;46.20;;;;;;5047374;28;20495;-76
2023/06/16 12:42:11;;;;;;;5.80;2.03;;;25.30;45.50;;;;;;5046916;28;20504;-76
2023/06/16 12:44:59;;;;;;;3.37;2.47;;;25.20;46.20;;;;;;5046687;28;20409;-74
2023/06/16 12:47:26;;;;;;;6.83;2.20;;;25.40;46.30;;;;;;5047457;28;20419;-81